createdAt,value
2022-10-19T00:01:17.144Z,28.25
2022-10-19T00:03:45.118Z,27.98
2022-10-19T00:06:16.780Z,26.98
2022-10-19T00:08:47.226Z,28.10
2022-10-19T00:11:14.383Z,27.52
2022-10-19T00:13:41.583Z,27.30
2022-10-19T00:16:11.428Z,26.17
2022-10-19T00:18:39.449Z,27.55
2022-10-19T00:21:07.277Z,24.35
2022-10-19T00:23:34.775Z,25.98
2022-10-19T00:26:01.926Z,25.70
2022-10-19T00:28:29.114Z,26.27
2022-10-19T00:30:56.301Z,25.77
2022-10-19T00:33:23.499Z,26.30
2022-10-19T00:35:51.670Z,23.92
2022-10-19T00:38:22.363Z,26.13
2022-10-19T00:40:50.147Z,23.92
2022-10-19T00:43:18.321Z,24.95
2022-10-19T00:45:45.457Z,25.15
2022-10-19T00:48:13.949Z,25.75
2022-10-19T00:50:41.466Z,25.73
2022-10-19T00:53:08.786Z,24.65
2022-10-19T00:55:35.957Z,24.92
2022-10-19T00:58:03.500Z,24.83
2022-10-19T01:00:31.065Z,24.65
2022-10-19T01:02:58.970Z,23.98
2022-10-19T01:05:26.837Z,22.88
2022-10-19T01:07:54.518Z,23.98
2022-10-19T01:10:23.301Z,22.52
2022-10-19T01:13:01.399Z,21.30
2022-10-19T01:15:34.376Z,21.00
2022-10-19T01:18:07.589Z,22.38
2022-10-19T01:20:44.104Z,22.70
2022-10-19T01:23:14.108Z,22.05
2022-10-19T01:25:47.462Z,23.15
2022-10-19T01:28:33.032Z,21.48
2022-10-19T01:31:26.735Z,22.10
2022-10-19T01:34:12.331Z,21.95
2022-10-19T01:36:42.809Z,22.13
2022-10-19T01:39:12.934Z,23.52
2022-10-19T01:41:52.385Z,21.60
2022-10-19T01:44:51.853Z,21.70
2022-10-19T01:47:42.477Z,21.98
2022-10-19T01:50:15.833Z,21.23
2022-10-19T01:52:43.688Z,21.63
2022-10-19T01:55:12.413Z,21.60
2022-10-19T01:57:46.944Z,20.80
2022-10-19T02:00:15.535Z,20.20
2022-10-19T02:02:44.080Z,20.17
2022-10-19T02:05:12.393Z,20.95
2022-10-19T02:07:41.347Z,19.23
2022-10-19T02:10:08.879Z,19.77
2022-10-19T02:12:36.575Z,19.65
2022-10-19T02:15:09.881Z,19.60
2022-10-19T02:17:39.988Z,19.65
2022-10-19T02:20:07.604Z,19.48
2022-10-19T02:22:35.009Z,19.98
2022-10-19T02:25:03.422Z,19.95
2022-10-19T02:27:30.648Z,20.33
2022-10-19T02:29:57.816Z,19.75
2022-10-19T02:32:27.157Z,19.05
2022-10-19T02:34:54.321Z,18.33
2022-10-19T02:37:23.444Z,18.98
2022-10-19T02:39:52.725Z,18.52
2022-10-19T02:42:25.065Z,19.50
2022-10-19T02:44:57.045Z,18.10
2022-10-19T02:47:26.853Z,18.88
2022-10-19T02:49:54.566Z,18.65
2022-10-19T02:52:21.702Z,19.58
2022-10-19T02:54:50.377Z,18.77
2022-10-19T02:57:22.108Z,18.05
2022-10-19T02:59:49.833Z,18.70
2022-10-19T03:02:18.217Z,17.75
2022-10-19T03:07:18.993Z,17.60
2022-10-19T03:09:46.927Z,19.08
2022-10-19T03:12:14.482Z,18.27
2022-10-19T03:14:41.640Z,17.67
2022-10-19T03:17:08.988Z,18.15
2022-10-19T03:19:36.406Z,17.13
2022-10-19T03:22:04.118Z,16.52
2022-10-19T03:24:32.060Z,17.40
2022-10-19T03:26:59.255Z,16.50
2022-10-19T03:29:26.487Z,16.23
2022-10-19T03:31:53.608Z,17.10
2022-10-19T03:34:20.829Z,16.38
2022-10-19T03:36:48.023Z,17.50
2022-10-19T03:39:16.649Z,15.05
2022-10-19T03:41:44.023Z,16.85
2022-10-19T03:44:11.616Z,15.73
2022-10-19T03:46:38.735Z,16.25
2022-10-19T03:49:06.029Z,16.77
2022-10-19T03:51:33.784Z,17.23
2022-10-19T03:54:08.082Z,15.75
2022-10-19T03:56:35.673Z,16.30
2022-10-19T03:59:03.333Z,15.73
2022-10-19T04:01:31.815Z,15.60
2022-10-19T04:04:00.733Z,15.50
2022-10-19T04:06:32.149Z,15.90
2022-10-19T04:09:00.473Z,13.38
2022-10-19T04:11:29.818Z,14.80
2022-10-19T04:13:57.536Z,16.05
2022-10-19T04:16:25.463Z,15.55
2022-10-19T04:18:52.853Z,16.67
2022-10-19T04:21:24.394Z,15.18
2022-10-19T04:23:52.877Z,15.98
2022-10-19T04:26:20.174Z,15.98
2022-10-19T04:28:47.758Z,15.52
2022-10-19T04:31:14.972Z,14.82
2022-10-19T04:33:42.344Z,15.15
2022-10-19T04:36:10.468Z,15.27
2022-10-19T04:38:37.622Z,13.65
2022-10-19T04:41:09.165Z,14.70
2022-10-19T04:43:36.887Z,14.68
2022-10-19T04:46:05.304Z,14.20
2022-10-19T04:48:32.804Z,15.65
2022-10-19T04:50:59.973Z,14.20
2022-10-19T04:53:27.559Z,15.60
2022-10-19T04:55:54.803Z,14.27
2022-10-19T04:58:22.153Z,14.40
2022-10-19T05:00:50.049Z,15.60
2022-10-19T05:03:17.411Z,15.18
2022-10-19T05:05:44.605Z,14.68
2022-10-19T05:08:12.032Z,14.63
2022-10-19T05:10:41.194Z,13.48
2022-10-19T05:13:10.259Z,13.18
2022-10-19T05:15:37.403Z,13.43
2022-10-19T05:18:04.567Z,14.23
2022-10-19T05:20:34.519Z,13.70
2022-10-19T05:23:06.209Z,13.27
2022-10-19T05:25:34.589Z,12.30
2022-10-19T05:28:01.737Z,14.15
2022-10-19T05:30:28.929Z,12.75
2022-10-19T05:32:56.105Z,14.02
2022-10-19T05:35:23.280Z,13.20
2022-10-19T05:37:54.572Z,14.50
2022-10-19T05:40:21.809Z,14.85
2022-10-19T05:42:48.979Z,13.77
2022-10-19T05:45:16.157Z,14.95
2022-10-19T05:47:43.352Z,12.90
2022-10-19T05:50:10.479Z,14.98
2022-10-19T05:52:37.637Z,13.65
2022-10-19T05:55:04.923Z,13.32
2022-10-19T05:57:35.525Z,14.27
2022-10-19T06:00:04.549Z,15.27
2022-10-19T06:02:32.069Z,13.85
2022-10-19T06:04:59.246Z,16.25
2022-10-19T06:07:26.440Z,14.80
2022-10-19T06:09:53.625Z,13.45
2022-10-19T06:12:24.279Z,15.02
2022-10-19T06:14:52.510Z,14.43
2022-10-19T06:17:19.636Z,14.98
2022-10-19T06:19:47.592Z,15.68
2022-10-19T06:22:14.749Z,14.00
2022-10-19T06:24:41.913Z,13.80
2022-10-19T06:27:09.174Z,15.18
2022-10-19T06:29:36.456Z,14.38
2022-10-19T06:32:03.620Z,14.55
2022-10-19T06:34:30.804Z,12.90
2022-10-19T06:36:58.025Z,14.27
2022-10-19T06:39:25.151Z,13.43
2022-10-19T06:41:52.255Z,13.45
2022-10-19T06:44:19.659Z,12.48
2022-10-19T06:46:46.812Z,12.95
2022-10-19T06:49:14.800Z,13.35
2022-10-19T06:51:41.986Z,13.68
2022-10-19T06:54:09.153Z,12.05
2022-10-19T06:56:36.391Z,13.45
2022-10-19T06:59:03.705Z,13.52
2022-10-19T07:01:30.943Z,13.02
2022-10-19T07:03:58.168Z,12.32
2022-10-19T07:06:27.794Z,13.45
2022-10-19T07:08:55.056Z,14.77
2022-10-19T07:11:22.779Z,13.30
2022-10-19T07:13:50.058Z,12.80
2022-10-19T07:16:21.328Z,14.73
2022-10-19T07:18:49.679Z,13.93
2022-10-19T07:21:17.005Z,14.55
2022-10-19T07:23:45.471Z,14.25
2022-10-19T07:26:14.174Z,12.68
2022-10-19T07:28:42.316Z,13.18
2022-10-19T07:31:10.936Z,13.77
2022-10-19T07:33:38.142Z,13.15
2022-10-19T07:36:07.103Z,11.90
2022-10-19T07:38:34.779Z,12.05
2022-10-19T07:41:06.441Z,11.57
2022-10-19T07:43:34.061Z,12.27
2022-10-19T07:46:08.559Z,12.50
2022-10-19T07:48:37.112Z,12.30
2022-10-19T07:51:05.733Z,12.38
2022-10-19T07:53:33.315Z,12.02
2022-10-19T07:56:11.059Z,11.93
2022-10-19T07:58:38.346Z,13.02
2022-10-19T08:01:07.202Z,12.27
2022-10-19T08:06:22.389Z,13.90
2022-10-19T08:08:50.765Z,11.82
2022-10-19T08:11:23.235Z,12.32
2022-10-19T08:13:50.596Z,13.80
2022-10-19T08:16:22.637Z,12.40
2022-10-19T08:18:49.978Z,12.30
2022-10-19T08:21:17.150Z,12.05
2022-10-19T08:23:44.378Z,11.95
2022-10-19T08:26:11.611Z,11.32
2022-10-19T08:28:38.749Z,11.70
2022-10-19T08:31:13.291Z,11.27
2022-10-19T08:33:40.565Z,12.80
2022-10-19T08:36:08.554Z,12.05
2022-10-19T08:38:36.337Z,11.57
2022-10-19T08:41:21.879Z,11.50
2022-10-19T08:43:59.885Z,11.35
2022-10-19T08:46:35.821Z,11.38
2022-10-19T08:49:03.269Z,11.38
2022-10-19T08:51:36.574Z,11.93
2022-10-19T08:54:04.857Z,11.60
2022-10-19T08:56:51.300Z,12.48
2022-10-19T08:59:37.276Z,12.68
2022-10-19T09:02:16.761Z,11.65
2022-10-19T09:04:49.447Z,12.02
2022-10-19T09:07:19.600Z,12.13
2022-10-19T09:09:57.394Z,12.02
2022-10-19T09:12:44.872Z,11.10
2022-10-19T09:15:13.742Z,11.00
2022-10-19T09:17:41.106Z,11.80
2022-10-19T09:20:15.249Z,12.23
2022-10-19T09:22:43.747Z,12.73
2022-10-19T09:25:21.108Z,12.38
2022-10-19T09:27:49.587Z,11.25
2022-10-19T09:30:16.804Z,12.40
2022-10-19T09:32:43.957Z,12.00
2022-10-19T09:35:29.328Z,11.95
2022-10-19T09:37:59.858Z,10.95
2022-10-19T09:40:28.760Z,12.05
2022-10-19T09:43:03.085Z,12.00
2022-10-19T09:45:48.600Z,11.27
2022-10-19T09:48:18.590Z,11.63
2022-10-19T09:50:46.504Z,11.73
2022-10-19T09:53:19.283Z,11.57
2022-10-19T09:58:16.280Z,11.75
2022-10-19T10:00:46.229Z,12.15
2022-10-19T10:03:32.065Z,12.60
2022-10-19T10:06:02.828Z,11.95
2022-10-19T10:08:35.227Z,10.98
2022-10-19T10:11:21.274Z,11.98
2022-10-19T10:13:53.096Z,11.60
2022-10-19T10:16:21.776Z,11.52
2022-10-19T10:18:59.625Z,11.90
2022-10-19T10:21:33.590Z,11.57
2022-10-19T10:24:00.754Z,12.00
2022-10-19T10:26:28.405Z,11.15
2022-10-19T10:28:57.921Z,11.63
2022-10-19T10:31:30.238Z,10.07
2022-10-19T10:34:10.832Z,11.80
2022-10-19T10:36:54.593Z,11.73
2022-10-19T10:39:21.805Z,12.13
2022-10-19T10:41:49.526Z,11.35
2022-10-19T10:44:18.965Z,12.00
2022-10-19T10:46:53.304Z,11.50
2022-10-19T10:49:30.787Z,13.20
2022-10-19T10:51:59.207Z,11.43
2022-10-19T10:54:27.709Z,10.82
2022-10-19T10:56:58.781Z,11.90
2022-10-19T10:59:31.308Z,12.15
2022-10-19T11:02:04.515Z,11.52
2022-10-19T11:04:38.098Z,11.60
2022-10-19T11:07:19.266Z,12.13
2022-10-19T11:09:58.853Z,12.38
2022-10-19T11:12:37.893Z,11.10
2022-10-19T11:15:12.167Z,12.52
2022-10-19T11:17:41.758Z,12.65
2022-10-19T11:20:15.939Z,12.23
2022-10-19T11:23:09.552Z,11.95
2022-10-19T11:25:44.596Z,12.63
2022-10-19T11:28:11.733Z,11.93
2022-10-19T11:30:50.533Z,13.77
2022-10-19T11:33:29.871Z,14.10
2022-10-19T11:35:59.033Z,12.75
2022-10-19T11:38:35.912Z,12.98
2022-10-19T11:41:22.087Z,12.30
2022-10-19T11:46:35.178Z,13.10
2022-10-19T11:49:17.750Z,17.65
2022-10-19T11:52:02.567Z,27.50
2022-10-19T11:54:48.646Z,31.00
2022-10-19T11:57:26.872Z,26.13
2022-10-19T12:00:14.601Z,25.67
2022-10-19T12:02:45.548Z,27.48
2022-10-19T12:05:12.727Z,25.92
2022-10-19T12:07:45.429Z,28.52
2022-10-19T12:10:18.863Z,29.48
2022-10-19T12:12:49.193Z,33.53
2022-10-19T12:15:23.642Z,32.65
2022-10-19T12:17:52.801Z,31.15
2022-10-19T12:20:20.115Z,32.45
2022-10-19T12:22:48.956Z,32.03
2022-10-19T12:25:17.137Z,32.55
2022-10-19T12:27:47.604Z,30.98
2022-10-19T12:30:16.200Z,32.90
2022-10-19T12:32:52.066Z,31.17
2022-10-19T12:35:47.457Z,29.23
2022-10-19T12:38:24.162Z,29.10
2022-10-19T12:40:59.476Z,27.80
2022-10-19T12:43:34.191Z,28.85
2022-10-19T12:46:11.756Z,29.63
2022-10-19T12:48:39.302Z,28.27
2022-10-19T12:51:08.909Z,27.65
2022-10-19T12:53:40.857Z,26.58
2022-10-19T12:56:28.259Z,26.35
2022-10-19T12:59:01.373Z,24.58
2022-10-19T13:01:48.906Z,23.55
2022-10-19T13:04:21.301Z,23.20
2022-10-19T13:06:49.721Z,23.27
2022-10-19T13:09:37.084Z,23.70
2022-10-19T13:12:21.286Z,24.42
2022-10-19T13:15:04.811Z,22.85
2022-10-19T13:17:36.496Z,23.65
2022-10-19T13:20:16.325Z,25.70
2022-10-19T13:22:51.028Z,23.33
2022-10-19T13:25:18.837Z,22.95
2022-10-19T13:27:49.608Z,23.70
2022-10-19T13:30:49.305Z,22.15
2022-10-19T13:33:29.044Z,23.05
2022-10-19T13:35:59.313Z,22.00
2022-10-19T13:38:29.321Z,22.92
2022-10-19T13:40:56.486Z,22.58
2022-10-19T13:43:25.818Z,21.83
2022-10-19T13:46:13.762Z,20.95
2022-10-19T13:48:59.859Z,21.20
2022-10-19T13:51:45.468Z,21.08
2022-10-19T13:54:27.284Z,21.95
2022-10-19T13:57:13.102Z,20.90
2022-10-19T13:59:53.802Z,20.33
2022-10-19T14:02:39.559Z,21.38
2022-10-19T14:05:25.674Z,20.55
2022-10-19T14:08:04.764Z,20.30
2022-10-19T14:10:33.150Z,19.52
2022-10-19T14:13:14.528Z,19.58
2022-10-19T14:15:50.233Z,20.63
2022-10-19T14:20:56.412Z,20.80
2022-10-19T14:23:25.329Z,20.00
2022-10-19T14:26:15.939Z,19.65
2022-10-19T14:28:43.404Z,21.00
2022-10-19T14:31:11.648Z,20.13
2022-10-19T14:33:42.510Z,20.13
2022-10-19T14:36:15.431Z,19.90
2022-10-19T14:38:43.580Z,20.73
2022-10-19T14:41:28.903Z,19.65
2022-10-19T14:44:00.091Z,19.75
2022-10-19T14:46:29.568Z,18.65
2022-10-19T14:49:01.038Z,18.17
2022-10-19T14:51:31.145Z,18.83
2022-10-19T14:54:04.176Z,19.88
2022-10-19T14:56:31.343Z,20.65
2022-10-19T14:59:03.862Z,19.25
2022-10-19T15:01:31.278Z,19.13
2022-10-19T15:03:58.564Z,21.30
2022-10-19T15:06:27.812Z,20.70
2022-10-19T15:09:09.364Z,19.15
2022-10-19T15:11:46.672Z,18.45
2022-10-19T15:14:15.211Z,19.23
2022-10-19T15:16:45.452Z,18.33
2022-10-19T15:19:17.964Z,17.48
2022-10-19T15:21:45.542Z,17.83
2022-10-19T15:24:25.365Z,18.00
2022-10-19T15:27:06.437Z,16.50
2022-10-19T15:29:34.010Z,17.08
2022-10-19T15:32:15.064Z,16.38
2022-10-19T15:34:43.210Z,17.65
2022-10-19T15:37:16.330Z,17.90
2022-10-19T15:39:45.692Z,17.75
2022-10-19T15:42:34.473Z,16.13
2022-10-19T15:45:02.107Z,18.48
2022-10-19T15:47:30.299Z,16.77
2022-10-19T15:49:58.763Z,15.65
2022-10-19T15:52:26.988Z,16.90
2022-10-19T15:54:55.468Z,17.40
2022-10-19T15:57:36.444Z,16.60
2022-10-19T16:00:22.048Z,16.67
2022-10-19T16:02:49.285Z,16.48
2022-10-19T16:05:16.484Z,15.90
2022-10-19T16:07:43.644Z,17.00
2022-10-19T16:10:29.036Z,17.38
2022-10-19T16:12:56.223Z,16.10
2022-10-19T16:15:24.045Z,16.83
2022-10-19T16:17:55.347Z,16.58
2022-10-19T16:20:23.368Z,16.13
2022-10-19T16:22:50.943Z,18.38
2022-10-19T16:25:18.504Z,16.85
2022-10-19T16:27:45.724Z,15.23
2022-10-19T16:30:13.544Z,15.32
2022-10-19T16:35:12.810Z,14.05
2022-10-19T16:37:39.952Z,15.38
2022-10-19T16:40:07.420Z,15.02
2022-10-19T16:42:34.957Z,14.02
2022-10-19T16:45:02.532Z,14.35
2022-10-19T16:47:29.750Z,14.73
2022-10-19T16:50:01.144Z,14.23
2022-10-19T16:52:29.326Z,14.80
2022-10-19T16:54:57.441Z,15.18
2022-10-19T16:57:24.593Z,14.50
2022-10-19T17:02:21.687Z,14.60
2022-10-19T17:04:51.903Z,13.10
2022-10-19T17:07:19.096Z,14.45
2022-10-19T17:09:47.853Z,14.45
2022-10-19T17:12:17.005Z,14.10
2022-10-19T17:14:44.153Z,14.43
2022-10-19T17:17:11.969Z,13.90
2022-10-19T17:19:39.151Z,13.93
2022-10-19T17:22:06.358Z,13.93
2022-10-19T17:24:33.513Z,12.73
2022-10-19T17:27:02.901Z,14.25
2022-10-19T17:29:30.142Z,13.65
2022-10-19T17:31:57.747Z,14.07
2022-10-19T17:34:24.937Z,13.25
2022-10-19T17:36:52.207Z,12.85
2022-10-19T17:39:25.566Z,14.02
2022-10-19T17:41:57.524Z,12.95
2022-10-19T17:44:24.676Z,13.05
2022-10-19T17:46:52.001Z,13.98
2022-10-19T17:49:19.237Z,12.95
2022-10-19T17:51:46.393Z,12.75
2022-10-19T17:54:14.428Z,12.93
2022-10-19T17:56:44.812Z,12.45
2022-10-19T17:59:12.204Z,13.10
2022-10-19T18:01:39.405Z,13.10
2022-10-19T18:04:06.972Z,13.02
2022-10-19T18:06:35.494Z,12.38
2022-10-19T18:09:04.008Z,12.18
2022-10-19T18:11:32.320Z,13.18
2022-10-19T18:14:00.356Z,12.55
2022-10-19T18:16:32.212Z,12.88
2022-10-19T18:19:00.474Z,12.27
2022-10-19T18:21:30.560Z,12.30
2022-10-19T18:23:59.429Z,12.57
2022-10-19T18:26:28.604Z,12.80
2022-10-19T18:28:56.454Z,11.57
2022-10-19T18:31:25.080Z,11.90
2022-10-19T18:33:56.485Z,11.45
2022-10-19T18:36:23.685Z,12.05
2022-10-19T18:38:54.821Z,11.52
2022-10-19T18:41:22.487Z,11.80
2022-10-19T18:43:56.729Z,11.63
2022-10-19T18:46:25.173Z,12.57
2022-10-19T18:48:53.544Z,10.88
2022-10-19T18:51:21.291Z,11.48
2022-10-19T18:53:48.775Z,10.98
2022-10-19T18:56:17.063Z,10.80
2022-10-19T18:58:44.802Z,11.40
2022-10-19T19:01:16.372Z,11.50
2022-10-19T19:03:44.713Z,10.57
2022-10-19T19:06:15.979Z,11.18
2022-10-19T19:11:20.654Z,11.48
2022-10-19T19:13:55.362Z,10.65
2022-10-19T19:16:22.844Z,11.00
2022-10-19T19:18:50.070Z,9.55
2022-10-19T19:21:17.360Z,10.82
2022-10-19T19:23:44.797Z,9.57
2022-10-19T19:26:13.034Z,10.57
2022-10-19T19:28:41.908Z,9.85
2022-10-19T19:31:11.475Z,9.90
2022-10-19T19:33:39.539Z,9.50
2022-10-19T19:36:07.944Z,10.15
2022-10-19T19:38:35.739Z,10.00
2022-10-19T19:41:06.847Z,9.27
2022-10-19T19:43:34.975Z,9.15
2022-10-19T19:46:06.274Z,10.07
2022-10-19T19:48:36.696Z,10.57
2022-10-19T19:51:03.849Z,10.20
2022-10-19T19:53:31.092Z,11.05
2022-10-19T19:55:58.303Z,10.40
2022-10-19T19:58:25.456Z,10.57
2022-10-19T20:00:52.618Z,9.65
2022-10-19T20:03:19.970Z,10.73
2022-10-19T20:05:47.132Z,10.57
2022-10-19T20:08:14.262Z,10.23
2022-10-19T20:10:42.160Z,9.77
2022-10-19T20:13:09.528Z,9.27
2022-10-19T20:15:39.897Z,9.15
2022-10-19T20:18:07.574Z,8.73
2022-10-19T20:20:34.720Z,9.18
2022-10-19T20:23:01.837Z,9.60
2022-10-19T20:25:28.975Z,9.63
2022-10-19T20:27:56.128Z,10.10
2022-10-19T20:30:23.312Z,10.60
2022-10-19T20:32:54.016Z,9.38
2022-10-19T20:35:21.148Z,11.15
2022-10-19T20:37:51.488Z,10.52
2022-10-19T20:40:19.227Z,10.00
2022-10-19T20:42:47.675Z,10.20
2022-10-19T20:45:15.024Z,10.38
2022-10-19T20:47:42.207Z,10.02
2022-10-19T20:50:09.621Z,10.15
2022-10-19T20:52:38.460Z,11.07
2022-10-19T20:55:06.662Z,9.68
2022-10-19T20:57:33.823Z,9.80
2022-10-19T21:00:00.980Z,9.65
2022-10-19T21:02:28.203Z,9.60
2022-10-19T21:04:55.395Z,9.40
2022-10-19T21:07:22.538Z,9.82
2022-10-19T21:09:49.725Z,9.43
2022-10-19T21:12:16.935Z,9.55
2022-10-19T21:14:44.105Z,9.55
2022-10-19T21:17:11.281Z,9.50
2022-10-19T21:19:38.434Z,9.32
2022-10-19T21:22:06.331Z,9.35
2022-10-19T21:24:35.086Z,10.75
2022-10-19T21:27:03.815Z,9.63
2022-10-19T21:29:31.004Z,9.05
2022-10-19T21:31:58.174Z,10.23
2022-10-19T21:34:26.525Z,9.10
2022-10-19T21:36:54.061Z,9.95
2022-10-19T21:39:21.198Z,9.80
2022-10-19T21:41:48.585Z,9.32
2022-10-19T21:44:16.542Z,9.07
2022-10-19T21:46:43.925Z,10.10
2022-10-19T21:49:14.993Z,9.98
2022-10-19T21:51:47.078Z,8.82
2022-10-19T21:54:16.195Z,9.80
2022-10-19T21:56:43.803Z,10.32
2022-10-19T21:59:12.081Z,8.80
2022-10-19T22:01:41.192Z,10.43
2022-10-19T22:04:09.892Z,8.98
2022-10-19T22:06:37.258Z,10.63
2022-10-19T22:09:06.042Z,9.45
2022-10-19T22:11:33.629Z,9.27
2022-10-19T22:14:01.875Z,9.48
2022-10-19T22:16:29.873Z,9.82
2022-10-19T22:18:57.519Z,8.30
2022-10-19T22:21:26.001Z,9.60
2022-10-19T22:23:54.435Z,9.15
2022-10-19T22:26:28.761Z,9.05
2022-10-19T22:28:56.895Z,9.85
2022-10-19T22:31:24.452Z,9.35
2022-10-19T22:33:51.566Z,9.57
2022-10-19T22:36:18.989Z,8.30
2022-10-19T22:38:46.608Z,8.90
2022-10-19T22:41:16.519Z,9.00
2022-10-19T22:44:21.506Z,8.02
2022-10-19T22:47:26.552Z,8.73
2022-10-19T22:50:31.017Z,8.43
2022-10-19T22:52:58.311Z,9.23
2022-10-19T22:55:25.495Z,8.13
2022-10-19T22:57:52.609Z,9.25
2022-10-19T23:00:19.885Z,9.43
2022-10-19T23:02:47.010Z,7.90
2022-10-19T23:05:14.298Z,8.70
2022-10-19T23:07:41.391Z,7.72
2022-10-19T23:10:09.058Z,8.35
2022-10-19T23:12:36.238Z,8.68
2022-10-19T23:15:03.388Z,8.82
2022-10-19T23:17:30.523Z,8.32
2022-10-19T23:19:57.708Z,8.18
2022-10-19T23:22:24.878Z,8.38
2022-10-19T23:24:51.996Z,7.97
2022-10-19T23:27:20.467Z,8.13
2022-10-19T23:29:48.010Z,8.18
2022-10-19T23:32:15.216Z,7.63
2022-10-19T23:34:44.570Z,7.40
2022-10-19T23:37:14.616Z,7.47
2022-10-19T23:39:41.745Z,7.47
2022-10-19T23:42:08.940Z,6.97
2022-10-19T23:44:36.159Z,7.38
2022-10-19T23:47:03.283Z,7.53
2022-10-19T23:49:30.449Z,7.95
2022-10-19T23:51:57.566Z,7.40
2022-10-19T23:54:24.779Z,6.95
2022-10-19T23:56:51.916Z,8.00
2022-10-19T23:59:19.068Z,7.25
